Time;durP1;ratioP1;P1;durP2;ratioP2;P2;SDS_P1;SDS_P2;PMS_P1;PMS_P2;Temp;Humidity;BMP_temperature;BMP_pressure;BME280_temperature;BME280_humidity;BME280_pressure;Samples;Min_cycle;Max_cycle;Signal;HPM_P1;HPM_P2
2022/08/19 00:02:04;;;;;;;8.38;4.57;;;;;;;18.59;100.00;101323.66;5034844;28;20067;-74
2022/08/19 00:04:34;;;;;;;8.88;5.05;;;;;;;18.58;100.00;101327.19;5044172;28;20028;-74
2022/08/19 00:07:00;;;;;;;6.93;4.45;;;;;;;18.51;100.00;101321.03;5055115;28;20552;-74
2022/08/19 00:09:26;;;;;;;8.48;4.68;;;;;;;18.45;100.00;101315.75;5042749;28;20032;-74
2022/08/19 00:11:53;;;;;;;7.53;6.13;;;;;;;18.44;100.00;101312.22;5035317;28;20515;-74
2022/08/19 00:14:20;;;;;;;8.15;5.32;;;;;;;18.39;100.00;101314.03;5035753;28;20025;-74
2022/08/19 00:16:47;;;;;;;8.27;4.88;;;;;;;18.35;100.00;101314.94;5035894;28;20421;-74
2022/08/19 00:19:13;;;;;;;6.68;5.38;;;;;;;18.41;100.00;101319.34;5034561;28;20021;-74
2022/08/19 00:21:39;;;;;;;8.63;5.15;;;;;;;18.41;100.00;101320.25;5046362;28;20056;-74
2022/08/19 00:24:07;;;;;;;8.10;5.40;;;;;;;18.44;100.00;101320.22;5036763;28;20424;-74
2022/08/19 00:26:33;;;;;;;7.90;5.15;;;;;;;18.51;100.00;101329.03;5059895;28;20394;-74
2022/08/19 00:28:59;;;;;;;7.72;4.95;;;;;;;18.43;100.00;101322.88;5054184;28;20021;-74
2022/08/19 00:31:25;;;;;;;7.22;4.82;;;;;;;18.38;100.00;101325.59;5039675;28;20504;-74
2022/08/19 00:33:50;;;;;;;9.02;5.13;;;;;;;18.39;100.00;101324.69;5050871;28;20020;-74
2022/08/19 00:36:17;;;;;;;8.77;5.85;;;;;;;18.44;100.00;101324.66;5050676;28;20028;-74
2022/08/19 00:38:43;;;;;;;10.05;5.40;;;;;;;18.42;100.00;101332.69;5052709;28;20029;-73
2022/08/19 00:41:11;;;;;;;15.32;5.80;;;;;;;18.42;100.00;101329.09;5052496;28;20111;-75
2022/08/19 00:43:38;;;;;;;8.20;6.25;;;;;;;18.43;100.00;101328.22;5042609;28;20090;-74
2022/08/19 00:46:04;;;;;;;11.00;6.07;;;;;;;18.43;100.00;101326.44;5053249;28;20540;-74
2022/08/19 00:48:31;;;;;;;9.50;6.32;;;;;;;18.43;100.00;101323.75;5044928;28;20107;-74
2022/08/19 00:50:57;;;;;;;9.75;6.80;;;;;;;18.46;100.00;101315.75;5054506;28;20025;-73
2022/08/19 00:53:26;;;;;;;11.73;6.72;;;;;;;18.45;100.00;101324.66;5053632;28;20035;-73
2022/08/19 00:55:54;;;;;;;10.38;5.82;;;;;;;18.50;100.00;101335.25;5053896;28;20025;-74
2022/08/19 00:58:24;;;;;;;7.82;6.10;;;;;;;18.50;100.00;101329.94;5033923;28;20434;-74
2022/08/19 01:00:49;;;;;;;14.98;7.07;;;;;;;18.49;100.00;101333.50;5034215;28;20025;-73
2022/08/19 01:03:19;;;;;;;11.93;6.82;;;;;;;18.45;100.00;101326.41;5042502;28;20028;-73
2022/08/19 01:05:47;;;;;;;11.00;7.63;;;;;;;18.44;100.00;101325.53;5053726;28;20055;-74
2022/08/19 01:08:15;;;;;;;14.38;6.60;;;;;;;18.44;100.00;101325.53;5050356;28;20080;-74
2022/08/19 01:10:47;;;;;;;12.32;7.75;;;;;;;18.38;100.00;101336.25;5052147;28;20048;-74
2022/08/19 01:13:18;;;;;;;9.82;7.85;;;;;;;18.27;100.00;101338.09;5043577;28;20052;-75
2022/08/19 01:15:52;;;;;;;9.27;7.57;;;;;;;18.19;100.00;101336.38;5044404;28;20029;-74
2022/08/19 01:18:18;;;;;;;;;;;;;;;18.17;100.00;101338.16;5047849;28;20025;-74
2022/08/19 01:20:44;;;;;;;17.55;8.00;;;;;;;18.19;100.00;101344.38;5042747;28;19912;-74
2022/08/19 01:23:09;;;;;;;11.10;8.95;;;;;;;18.25;100.00;101346.13;5050678;28;20041;-74
2022/08/19 01:25:41;;;;;;;15.50;9.40;;;;;;;18.26;100.00;101342.56;5042693;28;20036;-74
2022/08/19 01:28:07;;;;;;;16.58;10.40;;;;;;;18.29;100.00;101342.53;5039114;28;20033;-74
2022/08/19 01:30:35;;;;;;;14.88;9.63;;;;;;;18.32;100.00;101341.63;5046308;28;20469;-74
2022/08/19 01:33:01;;;;;;;17.10;10.77;;;;;;;18.33;100.00;101338.06;5051573;28;20036;-73
2022/08/19 01:35:31;;;;;;;12.93;9.52;;;;;;;18.31;100.00;101340.75;5034368;28;20022;-75
2022/08/19 01:38:00;;;;;;;16.35;10.35;;;;;;;18.31;100.00;101345.19;5035587;28;20474;-74
2022/08/19 01:40:30;;;;;;;19.48;10.45;;;;;;;18.33;100.00;101346.06;5035207;28;20132;-75
2022/08/19 01:42:56;;;;;;;15.57;10.80;;;;;;;18.36;100.00;101343.38;5037696;28;20017;-74
2022/08/19 01:45:24;;;;;;;16.88;9.85;;;;;;;18.32;100.00;101346.94;5036572;28;20031;-74
2022/08/19 01:47:49;;;;;;;15.20;10.18;;;;;;;18.31;100.00;101345.19;5043889;28;20037;-74
2022/08/19 01:50:16;;;;;;;17.90;10.27;;;;;;;18.31;100.00;101342.50;5051972;28;20035;-74
2022/08/19 01:52:43;;;;;;;21.40;10.02;;;;;;;18.29;100.00;101333.66;5045856;28;20033;-74
2022/08/19 01:55:12;;;;;;;13.00;9.82;;;;;;;18.27;100.00;101338.09;5049832;28;20079;-73
2022/08/19 01:57:40;;;;;;;16.20;10.98;;;;;;;18.24;100.00;101340.81;5048806;28;20033;-74
2022/08/19 02:00:10;;;;;;;16.42;10.77;;;;;;;18.19;100.00;101333.72;5032499;28;20036;-75
2022/08/19 02:02:35;;;;;;;13.90;9.70;;;;;;;18.15;100.00;101331.97;5033742;28;20393;-73
2022/08/19 02:05:00;;;;;;;18.77;10.10;;;;;;;18.09;100.00;101324.03;5033286;28;20025;-74
2022/08/19 02:07:28;;;;;;;18.88;9.82;;;;;;;18.06;100.00;101323.19;5033117;28;20509;-75
2022/08/19 02:09:54;;;;;;;15.57;9.77;;;;;;;18.03;100.00;101330.28;5034383;28;20116;-75
2022/08/19 02:12:20;;;;;;;17.48;11.23;;;;;;;18.03;100.00;101334.72;5032995;28;20044;-74
2022/08/19 02:14:46;;;;;;;18.10;13.13;;;;;;;18.01;100.00;101331.19;5035814;28;20025;-74
2022/08/19 02:17:11;;;;;;;26.80;15.15;;;;;;;18.04;100.00;101336.47;5035737;28;20033;-74
2022/08/19 02:19:36;;;;;;;21.85;15.40;;;;;;;18.09;100.00;101333.81;5053461;28;20392;-74
2022/08/19 02:22:02;;;;;;;29.65;17.25;;;;;;;18.10;100.00;101331.13;5056347;28;20028;-74
2022/08/19 02:24:27;;;;;;;29.63;17.50;;;;;;;18.15;100.00;101328.41;5050414;28;20022;-74
2022/08/19 02:26:53;;;;;;;32.38;18.67;;;;;;;18.18;100.00;101328.41;5054706;28;20028;-74
2022/08/19 02:29:19;;;;;;;31.65;18.13;;;;;;;18.19;100.00;101333.72;5036762;28;20060;-74
2022/08/19 02:31:45;;;;;;;32.78;20.08;;;;;;;18.23;100.00;101326.59;5037593;28;20028;-75
2022/08/19 02:34:10;;;;;;;29.48;18.73;;;;;;;18.25;100.00;101340.78;5036745;28;20087;-74
2022/08/19 02:36:36;;;;;;;38.97;23.38;;;;;;;18.27;100.00;101332.78;5037596;28;20437;-75
2022/08/19 02:39:01;;;;;;;40.30;22.15;;;;;;;18.31;100.00;101329.19;5050385;28;20032;-74
2022/08/19 02:41:30;;;;;;;36.50;22.08;;;;;;;18.31;100.00;101327.44;5037140;28;20014;-74
2022/08/19 02:43:57;;;;;;;44.10;24.75;;;;;;;18.32;100.00;101320.31;5041533;28;20039;-75
2022/08/19 02:46:29;;;;;;;41.75;24.60;;;;;;;18.34;100.00;101313.22;5038173;28;20036;-75
2022/08/19 02:48:58;;;;;;;42.92;23.67;;;;;;;18.37;100.00;101313.19;5036749;28;20021;-73
2022/08/19 02:51:33;;;;;;;42.25;24.52;;;;;;;18.37;100.00;101313.19;5037420;28;20048;-75
2022/08/19 02:53:59;;;;;;;49.63;26.05;;;;;;;18.34;100.00;101297.22;5037738;28;20025;-75
2022/08/19 02:56:27;;;;;;;43.80;23.20;;;;;;;18.37;100.00;101295.38;5052506;28;20044;-75
2022/08/19 02:58:54;;;;;;;41.60;23.02;;;;;;;18.41;100.00;101300.69;5036631;28;20022;-73
2022/08/19 03:01:31;;;;;;;47.83;26.05;;;;;;;18.41;100.00;101298.94;5037924;28;20469;-74
2022/08/19 03:04:00;;;;;;;44.38;22.95;;;;;;;18.41;100.00;101298.94;5041507;28;20509;-74
2022/08/19 03:06:27;;;;;;;45.20;23.77;;;;;;;18.40;100.00;101293.63;5051877;28;20045;-75
2022/08/19 03:08:53;;;;;;;48.47;24.55;;;;;;;18.39;100.00;101295.38;5040855;28;20044;-74
2022/08/19 03:11:23;;;;;;;51.25;24.15;;;;;;;18.34;100.00;101291.88;5047883;28;20028;-75
2022/08/19 03:13:50;;;;;;;42.65;23.92;;;;;;;18.35;100.00;101288.31;5036848;28;20156;-75
2022/08/19 03:16:19;;;;;;;40.55;23.80;;;;;;;18.37;100.00;101291.84;5045508;28;20025;-73
2022/08/19 03:18:45;;;;;;;39.67;23.73;;;;;;;18.35;100.00;101290.97;5045929;28;20060;-75
2022/08/19 03:21:18;;;;;;;43.67;24.85;;;;;;;18.32;100.00;101291.88;5041886;28;20022;-75
2022/08/19 03:23:45;;;;;;;50.00;25.27;;;;;;;18.34;100.00;101307.88;5051671;28;20038;-73
2022/08/19 03:26:10;;;;;;;40.35;24.17;;;;;;;18.33;100.00;101292.78;5070785;28;20028;-75
2022/08/19 03:28:36;;;;;;;50.35;24.92;;;;;;;18.31;100.00;101291.91;5044619;28;20052;-75
2022/08/19 03:31:06;;;;;;;53.28;25.30;;;;;;;18.29;100.00;101289.25;5036739;28;20057;-75
2022/08/19 03:33:33;;;;;;;43.22;24.80;;;;;;;18.28;100.00;101283.94;5049413;28;20499;-74
2022/08/19 03:36:03;;;;;;;47.90;25.75;;;;;;;18.27;100.00;101288.41;5042905;28;20029;-74
2022/08/19 03:38:29;;;;;;;47.97;24.45;;;;;;;18.23;100.00;101289.31;5048585;28;20056;-75
2022/08/19 03:40:54;;;;;;;51.85;25.80;;;;;;;18.22;100.00;101290.22;5054542;28;20116;-74
2022/08/19 03:43:19;;;;;;;42.53;23.98;;;;;;;18.22;100.00;101289.31;5051112;28;20037;-74
2022/08/19 03:45:45;;;;;;;52.40;25.20;;;;;;;18.20;100.00;101286.66;5044487;28;20532;-75
2022/08/19 03:48:10;;;;;;;50.90;25.65;;;;;;;18.19;100.00;101293.78;5052563;28;20029;-76
2022/08/19 03:50:39;;;;;;;47.55;24.33;;;;;;;18.21;100.00;101285.75;5053227;28;20028;-73
2022/08/19 03:53:06;;;;;;;51.08;24.20;;;;;;;18.17;100.00;101290.22;5035480;28;20466;-74
2022/08/19 03:55:31;;;;;;;57.40;24.35;;;;;;;18.15;100.00;101297.34;5044838;28;20078;-75
2022/08/19 03:57:56;;;;;;;47.25;23.98;;;;;;;18.14;100.00;101298.25;5052078;28;20036;-75
2022/08/19 04:00:22;;;;;;;49.22;24.77;;;;;;;18.11;100.00;101295.63;5038495;28;20022;-74
2022/08/19 04:02:47;;;;;;;49.08;26.23;;;;;;;18.12;100.00;101301.81;5039509;28;20033;-74
2022/08/19 04:05:13;;;;;;;59.67;27.35;;;;;;;18.10;100.00;101296.50;5034374;28;20112;-74
2022/08/19 04:07:39;;;;;;;50.83;25.92;;;;;;;18.02;100.00;101298.34;5036606;28;20073;-74
2022/08/19 04:10:05;;;;;;;49.67;25.33;;;;;;;18.05;100.00;101303.63;5034639;28;20396;-75
2022/08/19 04:12:30;;;;;;;50.63;26.20;;;;;;;18.06;100.00;101302.75;5033395;28;20420;-75
2022/08/19 04:14:56;;;;;;;55.60;26.92;;;;;;;18.08;100.00;101311.63;5037552;28;20053;-75
2022/08/19 04:17:22;;;;;;;56.88;29.33;;;;;;;17.97;100.00;101305.47;5040664;28;20112;-75
2022/08/19 04:19:47;;;;;;;56.72;28.05;;;;;;;17.94;100.00;101303.72;5037091;28;20022;-75
2022/08/19 04:22:12;;;;;;;52.83;28.63;;;;;;;17.94;100.00;101309.03;5037900;28;20108;-75
2022/08/19 04:24:38;;;;;;;63.85;29.98;;;;;;;17.98;100.00;101300.13;5041885;28;20129;-74
2022/08/19 04:27:05;;;;;;;61.10;31.15;;;;;;;17.99;100.00;101311.69;5059167;28;20033;-74
2022/08/19 04:29:31;;;;;;;65.03;30.92;;;;;;;17.94;100.00;101313.47;5049547;28;20025;-74
2022/08/19 04:31:57;;;;;;;68.38;31.98;;;;;;;17.87;100.00;101318.81;5042074;28;20029;-75
2022/08/19 04:34:25;;;;;;;66.43;31.55;;;;;;;17.91;100.00;101319.69;5035410;28;20029;-74
2022/08/19 04:36:52;;;;;;;75.78;33.92;;;;;;;17.91;100.00;101321.47;5054622;28;20039;-75
2022/08/19 04:39:22;;;;;;;80.72;35.95;;;;;;;17.93;100.00;101311.72;5053774;28;20021;-74
2022/08/19 04:44:35;;;;;;;71.20;33.85;;;;;;;18.03;100.00;101305.44;5037848;28;20064;-73
2022/08/19 04:47:05;;;;;;;79.10;32.50;;;;;;;18.05;100.00;101308.09;5034784;28;20425;-73
2022/08/19 04:49:31;;;;;;;81.68;35.00;;;;;;;18.06;100.00;101302.75;5035679;28;20484;-76
2022/08/19 04:51:56;;;;;;;73.82;31.27;;;;;;;18.10;100.00;101304.50;5034481;28;20025;-74
2022/08/19 04:54:24;;;;;;;75.72;32.97;;;;;;;18.13;100.00;101306.25;5049624;28;20079;-74
2022/08/19 04:56:51;;;;;;;76.93;32.47;;;;;;;18.18;100.00;101312.44;5038513;28;20480;-74
2022/08/19 04:59:19;;;;;;;76.03;33.45;;;;;;;18.10;100.00;101317.81;5044064;28;20448;-72
2022/08/19 05:01:48;;;;;;;77.97;34.30;;;;;;;18.15;100.00;101315.09;5039165;28;20028;-73
2022/08/19 05:04:13;;;;;;;81.85;33.38;;;;;;;18.19;100.00;101316.84;5037305;28;20025;-73
2022/08/19 05:06:39;;;;;;;77.82;31.95;;;;;;;18.23;100.00;101312.38;5052058;28;20072;-73
2022/08/19 05:09:05;;;;;;;75.30;33.38;;;;;;;18.24;100.00;101323.03;5053231;28;20384;-73
2022/08/19 05:11:39;;;;;;;84.68;34.05;;;;;;;18.20;100.00;101327.50;5037721;28;20037;-74
2022/08/19 05:14:06;;;;;;;77.70;34.08;;;;;;;18.27;100.00;101327.44;5034182;28;20029;-74
2022/08/19 05:16:32;;;;;;;76.80;33.85;;;;;;;18.33;100.00;101330.09;5039252;28;20046;-74
2022/08/19 05:24:27;;;;;;;79.32;32.70;;;;;;;18.39;100.00;101319.34;5034443;28;20088;-75
2022/08/19 05:26:56;;;;;;;74.72;32.00;;;;;;;18.43;100.00;101322.88;5074417;28;20020;-74
2022/08/19 05:29:23;;;;;;;74.70;32.35;;;;;;;18.47;100.00;101320.16;5060816;28;20036;-74
2022/08/19 05:31:49;;;;;;;82.28;31.42;;;;;;;18.50;100.00;101321.94;5050040;28;20083;-73
2022/08/19 05:34:16;;;;;;;62.97;28.45;;;;;;;18.57;100.00;101313.00;5039115;28;20461;-74
2022/08/19 05:36:44;;;;;;;69.63;29.95;;;;;;;18.57;100.00;101325.44;5039862;28;20044;-74
2022/08/19 05:39:13;;;;;;;68.20;32.03;;;;;;;18.58;100.00;101313.88;5036741;28;20129;-74
2022/08/19 05:41:47;;;;;;;76.32;31.90;;;;;;;18.65;100.00;101315.56;5034575;28;20453;-73
2022/08/19 05:44:12;;;;;;;71.28;30.98;;;;;;;18.61;100.00;101312.06;5043592;28;20116;-74
2022/08/19 05:46:38;;;;;;;65.50;27.60;;;;;;;18.65;100.00;101318.25;5036628;28;20508;-74
2022/08/19 05:49:07;;;;;;;87.88;30.48;;;;;;;18.68;100.00;101308.44;5033427;28;20035;-73
2022/08/19 05:51:34;;;;;;;70.82;30.85;;;;;;;18.63;100.00;101307.59;5048632;28;20445;-74
2022/08/19 05:54:05;;;;;;;64.25;27.98;;;;;;;18.67;100.00;101306.66;5041858;28;20033;-74
2022/08/19 05:56:30;;;;;;;69.60;28.70;;;;;;;18.63;100.00;101315.59;5049319;28;20036;-74
2022/08/19 05:58:58;;;;;;;69.85;30.38;;;;;;;18.66;100.00;101320.03;5037411;28;20055;-74
2022/08/19 06:01:25;;;;;;;62.88;27.98;;;;;;;18.72;100.00;101314.63;5037769;28;20037;-74
2022/08/19 06:03:50;;;;;;;66.97;29.17;;;;;;;18.76;100.00;101312.81;5037809;28;20029;-75
2022/08/19 06:06:16;;;;;;;71.03;27.55;;;;;;;18.86;100.00;101311.81;5045049;28;20052;-74
2022/08/19 06:08:49;;;;;;;66.15;28.60;;;;;;;18.92;100.00;101311.78;5037795;28;20037;-74
2022/08/19 06:11:25;;;;;;;67.05;27.65;;;;;;;18.93;100.00;101312.69;5037816;28;20072;-75
2022/08/19 06:13:52;;;;;;;60.58;27.25;;;;;;;18.96;100.00;101309.97;5054560;28;20037;-75
2022/08/19 06:16:24;;;;;;;58.40;26.23;;;;;;;18.98;100.00;101309.06;5054775;28;20045;-75
2022/08/19 06:18:51;;;;;;;59.95;28.85;;;;;;;18.95;100.00;101317.09;5042152;28;20033;-73
2022/08/19 06:21:19;;;;;;;62.20;27.58;;;;;;;19.01;100.00;101313.47;5045530;28;20021;-76
2022/08/19 06:23:47;;;;;;;56.72;24.88;;;;;;;19.07;100.00;101321.41;5045052;28;20052;-75
2022/08/19 06:26:13;;;;;;;65.63;27.15;;;;;;;19.04;100.00;101316.09;5046286;28;20026;-73
2022/08/19 06:28:42;;;;;;;57.03;26.52;;;;;;;19.01;100.00;101318.81;5036710;28;20031;-74
2022/08/19 06:31:08;;;;;;;69.28;27.00;;;;;;;19.06;100.00;101319.66;5037304;28;20167;-74
2022/08/19 06:33:34;;;;;;;60.55;26.05;;;;;;;19.10;100.00;101308.06;5037375;28;20055;-75
2022/08/19 06:35:59;;;;;;;63.53;27.15;;;;;;;19.16;100.00;101317.75;5040924;28;20025;-73
2022/08/19 06:38:24;;;;;;;59.05;27.27;;;;;;;19.23;100.00;101313.25;5054024;28;20477;-74
2022/08/19 06:40:50;;;;;;;59.42;25.88;;;;;;;19.24;100.00;101317.69;5048053;28;20362;-74
2022/08/19 06:43:15;;;;;;;53.38;26.70;;;;;;;19.24;100.00;101321.22;5041283;28;20030;-73
2022/08/19 06:45:42;;;;;;;53.83;26.70;;;;;;;19.32;100.00;101321.13;5037373;28;20026;-74
2022/08/19 06:48:07;;;;;;;51.88;25.55;;;;;;;19.41;100.00;101315.69;5045352;28;20086;-75
2022/08/19 06:50:32;;;;;;;49.55;25.13;;;;;;;19.42;100.00;101313.91;5041572;28;20148;-74
2022/08/19 06:52:58;;;;;;;58.92;27.10;;;;;;;19.52;100.00;101319.09;5052827;28;20515;-74
2022/08/19 06:55:23;;;;;;;54.00;24.60;;;;;;;19.56;100.00;101317.28;5055679;28;20082;-74
2022/08/19 06:57:50;;;;;;;58.60;25.88;;;;;;;19.66;100.00;101320.69;5043543;28;20439;-74
2022/08/19 07:00:15;;;;;;;54.55;25.25;;;;;;;19.68;100.00;101316.22;5036503;28;20033;-74
2022/08/19 07:02:42;;;;;;;44.50;22.40;;;;;;;19.76;100.00;101316.09;5038206;28;20045;-74
2022/08/19 07:05:08;;;;;;;45.47;24.20;;;;;;;19.79;100.00;101313.38;5051399;28;20033;-74
2022/08/19 07:07:33;;;;;;;47.97;22.98;;;;;;;19.87;100.00;101317.75;5045088;28;20538;-72
2022/08/19 07:09:59;;;;;;;42.22;22.20;;;;;;;19.88;100.00;101322.19;5056799;28;20021;-73
2022/08/19 07:12:24;;;;;;;46.20;23.48;;;;;;;19.97;100.00;101325.66;5050492;28;20116;-71
2022/08/19 07:14:50;;;;;;;46.25;23.33;;;;;;;20.09;100.00;101337.91;5046113;28;20041;-73
2022/08/19 07:17:15;;;;;;;43.15;21.73;;;;;;;20.16;100.00;101337.81;5052297;28;20025;-72
2022/08/19 07:19:42;;;;;;;40.33;20.98;;;;;;;20.21;100.00;101335.94;5045993;28;20032;-72
2022/08/19 07:22:08;;;;;;;36.30;20.02;;;;;;;20.19;100.00;101339.56;5044256;28;20032;-72
2022/08/19 07:24:35;;;;;;;37.88;20.08;;;;;;;20.19;100.00;101345.78;5038337;28;20110;-73
2022/08/19 07:27:04;;;;;;;38.90;19.13;;;;;;;20.10;100.00;101348.56;5065622;28;20037;-73
2022/08/19 07:29:32;;;;;;;43.72;20.30;;;;;;;20.05;100.00;101346.00;5056947;28;20033;-73
2022/08/19 07:31:59;;;;;;;47.40;19.52;;;;;;;20.13;100.00;101343.22;5055666;28;20025;-72
2022/08/19 07:34:26;;;;;;;38.78;18.27;;;;;;;20.19;100.00;101336.88;5055375;28;20111;-73
2022/08/19 07:36:53;;;;;;;36.70;19.20;;;;;;;20.26;100.00;101348.34;5048765;28;20480;-73
2022/08/19 07:39:28;;;;;;;33.97;18.40;;;;;;;20.33;100.00;101339.31;5055355;28;20028;-73
2022/08/19 07:41:55;;;;;;;37.53;17.85;;;;;;;20.41;100.00;101342.75;5055852;28;20365;-73
2022/08/19 07:44:20;;;;;;;25.67;16.67;;;;;;;20.49;100.00;101343.50;5055731;28;20039;-73
2022/08/19 07:46:51;;;;;;;34.88;17.70;;;;;;;20.59;100.00;101346.94;5050098;28;20505;-73
2022/08/19 07:49:19;;;;;;;36.08;16.80;;;;;;;20.62;100.00;101354.00;5039387;28;20481;-72
2022/08/19 07:51:50;;;;;;;26.17;15.40;;;;;;;20.71;100.00;101346.75;5055359;28;20082;-73
2022/08/19 07:54:16;;;;;;;28.27;16.35;;;;;;;20.74;100.00;101339.56;5039910;28;20029;-73
2022/08/19 07:56:42;;;;;;;29.05;15.60;;;;;;;20.80;100.00;101343.00;5053661;28;20025;-73
2022/08/19 07:59:08;;;;;;;28.92;16.00;;;;;;;20.73;100.00;101349.41;5035986;28;20466;-73
2022/08/19 08:01:34;;;;;;;32.10;15.98;;;;;;;20.79;100.00;101351.06;5035125;28;20021;-72
2022/08/19 08:09:39;;;;;;;30.10;16.67;;;;;;;20.70;100.00;101365.47;5041236;28;20044;-73
2022/08/19 08:12:13;;;;;;;31.45;16.48;;;;;;;20.66;100.00;101371.75;5050493;28;20035;-72
2022/08/19 08:14:43;;;;;;;31.35;15.60;;;;;;;20.74;100.00;101366.31;5038221;28;20033;-73
2022/08/19 08:17:10;;;;;;;32.17;17.15;;;;;;;20.81;100.00;101362.59;5034756;28;20029;-73
2022/08/19 08:19:36;;;;;;;28.00;15.68;;;;;;;20.90;100.00;101367.78;5035069;28;20056;-73
2022/08/19 08:22:05;;;;;;;30.60;16.98;;;;;;;21.02;100.00;101369.38;5035176;28;20028;-73
2022/08/19 08:24:31;;;;;;;37.45;18.63;;;;;;;21.06;100.00;101374.63;5046920;28;20025;-73
2022/08/19 08:26:58;;;;;;;31.58;17.20;;;;;;;21.18;100.00;101368.16;5068866;28;20027;-73
2022/08/19 08:29:29;;;;;;;34.33;18.85;;;;;;;21.25;100.00;101368.06;5051547;28;20017;-71
2022/08/19 08:31:54;;;;;;;34.72;15.00;;;;;;;21.32;100.00;101375.91;5072837;28;20024;-72
2022/08/19 08:34:20;;;;;;;31.60;14.20;;;;;;;21.44;100.00;101374.81;5059610;28;20060;-73
2022/08/19 08:36:45;;;;;;;24.02;14.52;;;;;;;21.43;100.00;101381.06;5058722;28;20109;-74
2022/08/19 08:39:16;;;;;;;25.70;14.77;;;;;;;21.27;100.00;101383.19;5050744;28;20380;-75
2022/08/19 08:41:53;;;;;;;27.35;13.85;;;;;;;21.39;100.00;101387.38;5035575;28;20025;-75
2022/08/19 08:44:43;;;;;;;26.38;13.13;;;;;;;21.41;100.00;101385.59;5034769;28;20381;-72
2022/08/19 08:47:18;;;;;;;29.38;12.98;;;;;;;21.42;100.00;101382.00;5033652;28;20060;-75
2022/08/19 08:49:59;;;;;;;27.63;12.80;;;;;;;21.41;100.00;101379.34;5033458;28;20029;-74
2022/08/19 08:52:35;;;;;;;20.80;11.52;;;;;;;21.65;100.00;101383.34;5049442;28;20053;-75
2022/08/19 08:55:06;;;;;;;27.08;11.93;;;;;;;21.92;100.00;101389.91;5040037;28;20392;-74
2022/08/19 08:57:38;;;;;;;19.52;12.57;;;;;;;22.09;100.00;101384.16;5054880;28;20028;-74
2022/08/19 09:00:10;;;;;;;26.38;11.73;;;;;;;22.18;100.00;101377.72;5041364;28;20410;-74
2022/08/19 09:02:35;;;;;;;25.75;12.15;;;;;;;22.24;100.00;101378.44;5035167;28;20060;-75
2022/08/19 09:05:00;;;;;;;18.90;9.95;;;;;;;22.35;100.00;101382.72;5050135;28;20734;-75
2022/08/19 09:07:59;;;;;;;13.48;8.73;;;;;;;22.29;100.00;101381.03;5054395;28;20484;-75
2022/08/19 09:10:44;;;;;;;17.70;7.43;;;;;;;22.41;100.00;101379.88;5041917;28;20361;-74
2022/08/19 09:13:28;;;;;;;14.23;6.45;;;;;;;22.38;100.00;101380.84;5045448;28;20025;-74
2022/08/19 09:16:00;;;;;;;10.95;6.25;;;;;;;22.38;100.00;101386.22;5044287;28;20029;-75
2022/08/19 09:18:37;;;;;;;14.38;6.90;;;;;;;22.19;100.00;101387.50;5054891;28;20033;-75
2022/08/19 09:21:03;;;;;;;11.05;6.00;;;;;;;22.20;100.00;101397.31;5059218;28;20403;-75
2022/08/19 09:23:29;;;;;;;7.88;5.35;;;;;;;22.25;100.00;101390.06;5058900;28;20096;-75
2022/08/19 09:25:55;;;;;;;18.33;6.32;;;;;;;22.27;100.00;101395.38;5056489;28;20025;-75
2022/08/19 09:28:20;;;;;;;10.68;5.40;;;;;;;22.28;100.00;101399.84;5052572;28;20103;-75
2022/08/19 09:30:45;;;;;;;9.77;4.80;;;;;;;22.31;100.00;101399.75;5056104;28;20024;-74
2022/08/19 09:33:11;;;;;;;17.15;6.00;;;;;;;22.15;100.00;101405.47;5064881;28;20037;-73
2022/08/19 09:35:37;;;;;;;15.27;5.30;;;;;;;22.15;100.00;101408.16;5052703;28;20477;-74
2022/08/19 09:38:02;;;;;;;13.15;4.28;;;;;;;22.04;100.00;101407.50;5050650;28;20116;-75
2022/08/19 09:40:28;;;;;;;9.93;4.10;;;;;;;21.96;100.00;101401.44;5044612;28;20030;-75
2022/08/19 09:42:54;;;;;;;9.40;4.72;;;;;;;21.77;100.00;101401.84;5052087;28;20023;-75
2022/08/19 09:45:21;;;;;;;10.90;4.45;;;;;;;21.76;100.00;101408.13;5040671;28;20485;-73
2022/08/19 09:47:48;;;;;;;15.40;4.53;;;;;;;21.80;100.00;101408.91;5042805;28;20557;-74
2022/08/19 09:50:14;;;;;;;11.32;4.53;;;;;;;21.74;100.00;101409.94;5053029;28;20473;-73
2022/08/19 09:52:39;;;;;;;9.40;3.78;;;;;;;21.82;100.00;101412.47;5053242;28;20029;-74
2022/08/19 09:55:10;;;;;;;11.60;4.70;;;;;;;21.80;100.00;101408.91;5048435;28;20029;-74
2022/08/19 09:57:35;;;;;;;5.97;3.88;;;;;;;21.77;100.00;101404.53;5033565;28;20025;-74
2022/08/19 10:00:02;;;;;;;11.98;3.88;;;;;;;21.81;100.00;101408.91;5033365;28;20033;-75
2022/08/19 10:02:28;;;;;;;11.20;3.92;;;;;;;21.87;100.00;101408.75;5034090;28;20100;-74
2022/08/19 10:07:37;;;;;;;8.98;4.45;;;;;;;22.04;100.00;101403.03;5035984;28;20095;-75
2022/08/19 10:10:06;;;;;;;11.18;5.00;;;;;;;22.13;100.00;101407.31;5033772;28;20420;-75
2022/08/19 10:12:32;;;;;;;10.13;4.00;;;;;;;22.31;100.00;101405.97;5043859;28;20432;-73
2022/08/19 10:14:58;;;;;;;10.25;3.83;;;;;;;22.48;100.00;101410.13;5032857;28;20544;-75
2022/08/19 10:17:25;;;;;;;8.65;4.07;;;;;;;22.54;100.00;101413.50;5036868;28;20057;-77
2022/08/19 10:19:51;;;;;;;7.30;3.67;;;;;;;22.62;100.00;101404.41;5053616;28;20040;-77
2022/08/19 10:22:18;;;;;;;7.13;3.58;;;;;;;22.63;100.00;101408.88;5037647;28;20021;-76
2022/08/19 10:24:43;;;;;;;7.53;4.20;;;;;;;22.77;100.00;101409.38;5044325;28;20039;-77
2022/08/19 10:27:10;;;;;;;6.38;3.90;;;;;;;22.93;100.00;101407.19;5039624;28;20072;-77
2022/08/19 10:29:36;;;;;;;5.43;3.40;;;;;;;23.14;100.00;101407.56;5040513;28;20385;-76
2022/08/19 10:32:04;;;;;;;8.80;3.55;;;;;;;23.21;100.00;101404.69;5052709;28;20033;-74
2022/08/19 10:34:30;;;;;;;7.82;3.90;;;;;;;23.24;100.00;101404.59;5039314;28;20041;-75
2022/08/19 10:36:57;;;;;;;9.13;4.10;;;;;;;23.20;100.00;101410.97;5037230;28;20376;-74
2022/08/19 10:39:22;;;;;;;6.10;4.30;;;;;;;23.22;100.00;101406.47;5042642;28;20040;-74
2022/08/19 10:41:48;;;;;;;10.43;4.13;;;;;;;23.33;100.00;101407.94;5049565;28;20021;-73
2022/08/19 10:44:15;;;;;;;8.80;4.28;;;;;;;23.45;100.00;101404.03;5049565;28;20025;-75
2022/08/19 10:46:42;;;;;;;5.88;2.97;;;;;;;23.65;100.00;101392.72;5036102;28;20025;-72
2022/08/19 10:49:10;;;;;;;6.65;3.15;;;;;;;23.62;100.00;101400.88;5048039;28;20040;-72
2022/08/19 10:54:21;;;;;;;10.30;3.00;;;;;;;23.39;100.00;101399.75;5048541;28;20546;-74
2022/08/19 10:56:53;;;;;;;7.63;3.60;;;;;;;23.21;100.00;101402.00;5057637;28;20028;-74
2022/08/19 10:59:25;;;;;;;6.75;3.63;;;;;;;23.03;100.00;101406.03;5044307;28;20029;-74
2022/08/19 11:01:51;;;;;;;9.13;3.17;;;;;;;22.89;100.00;101405.50;5056290;28;20441;-73
2022/08/19 11:04:18;;;;;;;9.43;2.90;;;;;;;22.79;100.00;101403.97;5056404;28;20035;-75
2022/08/19 11:06:46;;;;;;;3.85;2.10;;;;;;;22.73;100.00;101402.34;5046346;28;20416;-73
2022/08/19 11:09:12;;;;;;;5.28;2.08;;;;;;;22.64;100.00;101407.94;5054653;28;20021;-74
2022/08/19 11:11:41;;;;;;;6.75;1.88;;;;;;;22.58;100.00;101400.06;5051541;28;20525;-74
2022/08/19 11:14:09;;;;;;;4.88;2.10;;;;;;;22.60;100.00;101407.13;5044288;28;20476;-74
2022/08/19 11:16:34;;;;;;;5.43;2.08;;;;;;;22.58;100.00;101402.72;5045529;28;20021;-74
2022/08/19 11:19:00;;;;;;;6.75;2.10;;;;;;;22.61;100.00;101405.31;5046627;28;20038;-71
2022/08/19 11:21:31;;;;;;;6.55;1.85;;;;;;;22.60;100.00;101409.81;5040628;28;20108;-75
2022/08/19 11:24:05;;;;;;;1.92;1.58;;;;;;;22.67;100.00;101413.25;5044138;28;20502;-75
2022/08/19 11:26:31;;;;;;;3.47;1.52;;;;;;;22.65;100.00;101412.38;5049315;28;20024;-76
2022/08/19 11:28:58;;;;;;;6.18;1.95;;;;;;;22.60;100.00;101411.59;5049500;28;20079;-76